sensor_id;sensor_type;location;lat;lon;timestamp;P1;durP1;ratioP1;P2;durP2;ratioP2
12088;SDS011;6107;49.078;8.578;2023-04-25T00:00:29;4.43;;;3.70;;
12088;SDS011;6107;49.078;8.578;2023-04-25T00:02:55;6.07;;;3.73;;
12088;SDS011;6107;49.078;8.578;2023-04-25T00:05:21;4.50;;;3.60;;
12088;SDS011;6107;49.078;8.578;2023-04-25T00:07:48;4.43;;;3.53;;
12088;SDS011;6107;49.078;8.578;2023-04-25T00:10:14;5.30;;;3.40;;
12088;SDS011;6107;49.078;8.578;2023-04-25T00:12:40;5.13;;;3.50;;
12088;SDS011;6107;49.078;8.578;2023-04-25T00:15:06;5.10;;;3.80;;
12088;SDS011;6107;49.078;8.578;2023-04-25T00:17:32;5.83;;;3.73;;
12088;SDS011;6107;49.078;8.578;2023-04-25T00:19:59;4.60;;;3.70;;
12088;SDS011;6107;49.078;8.578;2023-04-25T00:22:25;4.03;;;3.50;;
12088;SDS011;6107;49.078;8.578;2023-04-25T00:24:51;4.40;;;3.50;;
12088;SDS011;6107;49.078;8.578;2023-04-25T00:27:18;4.80;;;3.93;;
12088;SDS011;6107;49.078;8.578;2023-04-25T00:29:43;7.83;;;4.17;;
12088;SDS011;6107;49.078;8.578;2023-04-25T00:32:09;4.20;;;3.70;;
12088;SDS011;6107;49.078;8.578;2023-04-25T00:34:35;5.37;;;4.03;;
12088;SDS011;6107;49.078;8.578;2023-04-25T00:37:01;6.33;;;3.90;;
12088;SDS011;6107;49.078;8.578;2023-04-25T00:39:29;5.43;;;3.83;;
12088;SDS011;6107;49.078;8.578;2023-04-25T00:41:55;4.83;;;3.83;;
12088;SDS011;6107;49.078;8.578;2023-04-25T00:44:21;7.83;;;4.37;;
12088;SDS011;6107;49.078;8.578;2023-04-25T00:46:48;5.10;;;4.20;;
12088;SDS011;6107;49.078;8.578;2023-04-25T00:49:16;6.37;;;4.50;;
12088;SDS011;6107;49.078;8.578;2023-04-25T00:51:43;5.63;;;4.80;;
12088;SDS011;6107;49.078;8.578;2023-04-25T00:54:12;7.50;;;5.00;;
12088;SDS011;6107;49.078;8.578;2023-04-25T00:56:38;6.97;;;4.70;;
12088;SDS011;6107;49.078;8.578;2023-04-25T00:59:04;6.73;;;4.70;;
12088;SDS011;6107;49.078;8.578;2023-04-25T01:01:29;8.47;;;4.80;;
12088;SDS011;6107;49.078;8.578;2023-04-25T01:03:56;6.13;;;4.30;;
12088;SDS011;6107;49.078;8.578;2023-04-25T01:06:23;7.07;;;4.83;;
12088;SDS011;6107;49.078;8.578;2023-04-25T01:08:48;5.13;;;4.20;;
12088;SDS011;6107;49.078;8.578;2023-04-25T01:11:14;7.67;;;4.77;;
12088;SDS011;6107;49.078;8.578;2023-04-25T01:13:40;6.53;;;4.87;;
12088;SDS011;6107;49.078;8.578;2023-04-25T01:16:05;5.63;;;4.73;;
12088;SDS011;6107;49.078;8.578;2023-04-25T01:18:31;5.93;;;4.00;;
12088;SDS011;6107;49.078;8.578;2023-04-25T01:21:02;5.77;;;4.13;;
12088;SDS011;6107;49.078;8.578;2023-04-25T01:23:32;6.17;;;4.43;;
12088;SDS011;6107;49.078;8.578;2023-04-25T01:25:58;5.27;;;4.13;;
12088;SDS011;6107;49.078;8.578;2023-04-25T01:28:24;6.23;;;4.27;;
12088;SDS011;6107;49.078;8.578;2023-04-25T01:30:49;8.17;;;4.20;;
12088;SDS011;6107;49.078;8.578;2023-04-25T01:33:16;5.50;;;3.80;;
12088;SDS011;6107;49.078;8.578;2023-04-25T01:35:44;8.13;;;4.23;;
12088;SDS011;6107;49.078;8.578;2023-04-25T01:38:09;5.87;;;3.70;;
12088;SDS011;6107;49.078;8.578;2023-04-25T01:40:36;5.40;;;4.17;;
12088;SDS011;6107;49.078;8.578;2023-04-25T01:43:05;5.40;;;3.73;;
12088;SDS011;6107;49.078;8.578;2023-04-25T01:45:31;5.27;;;4.00;;
12088;SDS011;6107;49.078;8.578;2023-04-25T01:47:56;4.43;;;3.87;;
12088;SDS011;6107;49.078;8.578;2023-04-25T01:50:24;7.77;;;4.43;;
12088;SDS011;6107;49.078;8.578;2023-04-25T01:52:50;7.60;;;4.10;;
12088;SDS011;6107;49.078;8.578;2023-04-25T01:55:16;6.17;;;4.17;;
12088;SDS011;6107;49.078;8.578;2023-04-25T01:57:41;5.47;;;3.93;;
12088;SDS011;6107;49.078;8.578;2023-04-25T02:00:07;4.87;;;3.77;;
12088;SDS011;6107;49.078;8.578;2023-04-25T02:02:34;6.10;;;4.23;;
12088;SDS011;6107;49.078;8.578;2023-04-25T02:05:00;6.23;;;4.20;;
12088;SDS011;6107;49.078;8.578;2023-04-25T02:07:26;5.50;;;4.50;;
12088;SDS011;6107;49.078;8.578;2023-04-25T02:09:51;5.53;;;4.17;;
12088;SDS011;6107;49.078;8.578;2023-04-25T02:12:17;6.23;;;4.30;;
12088;SDS011;6107;49.078;8.578;2023-04-25T02:14:42;7.13;;;4.40;;
12088;SDS011;6107;49.078;8.578;2023-04-25T02:17:08;7.17;;;4.50;;
12088;SDS011;6107;49.078;8.578;2023-04-25T02:19:34;5.80;;;4.80;;
12088;SDS011;6107;49.078;8.578;2023-04-25T02:21:59;6.13;;;4.57;;
12088;SDS011;6107;49.078;8.578;2023-04-25T02:24:25;6.13;;;4.27;;
12088;SDS011;6107;49.078;8.578;2023-04-25T02:26:52;7.13;;;4.70;;
12088;SDS011;6107;49.078;8.578;2023-04-25T02:29:20;6.33;;;4.70;;
12088;SDS011;6107;49.078;8.578;2023-04-25T02:31:45;7.17;;;4.50;;
12088;SDS011;6107;49.078;8.578;2023-04-25T02:34:11;5.97;;;4.40;;
12088;SDS011;6107;49.078;8.578;2023-04-25T02:36:36;7.27;;;4.70;;
12088;SDS011;6107;49.078;8.578;2023-04-25T02:39:02;7.90;;;5.33;;
12088;SDS011;6107;49.078;8.578;2023-04-25T02:41:28;7.77;;;5.00;;
12088;SDS011;6107;49.078;8.578;2023-04-25T02:43:53;6.70;;;5.00;;
12088;SDS011;6107;49.078;8.578;2023-04-25T02:46:19;6.90;;;4.90;;
12088;SDS011;6107;49.078;8.578;2023-04-25T02:48:45;10.40;;;6.30;;
12088;SDS011;6107;49.078;8.578;2023-04-25T02:51:10;6.30;;;4.60;;
12088;SDS011;6107;49.078;8.578;2023-04-25T02:53:36;9.90;;;5.50;;
12088;SDS011;6107;49.078;8.578;2023-04-25T02:56:01;9.47;;;5.87;;
12088;SDS011;6107;49.078;8.578;2023-04-25T02:58:27;8.20;;;5.40;;
12088;SDS011;6107;49.078;8.578;2023-04-25T03:00:53;13.23;;;6.00;;
12088;SDS011;6107;49.078;8.578;2023-04-25T03:03:19;8.00;;;5.10;;
12088;SDS011;6107;49.078;8.578;2023-04-25T03:05:46;7.27;;;5.53;;
12088;SDS011;6107;49.078;8.578;2023-04-25T03:08:15;7.30;;;5.33;;
12088;SDS011;6107;49.078;8.578;2023-04-25T03:10:41;7.57;;;5.23;;
12088;SDS011;6107;49.078;8.578;2023-04-25T03:13:07;7.20;;;5.30;;
12088;SDS011;6107;49.078;8.578;2023-04-25T03:15:32;7.93;;;5.33;;
12088;SDS011;6107;49.078;8.578;2023-04-25T03:17:58;11.00;;;5.23;;
12088;SDS011;6107;49.078;8.578;2023-04-25T03:20:24;7.57;;;4.87;;
12088;SDS011;6107;49.078;8.578;2023-04-25T03:22:49;6.60;;;5.50;;
12088;SDS011;6107;49.078;8.578;2023-04-25T03:25:15;8.27;;;5.37;;
12088;SDS011;6107;49.078;8.578;2023-04-25T03:27:40;7.73;;;5.43;;
12088;SDS011;6107;49.078;8.578;2023-04-25T03:30:06;7.63;;;5.13;;
12088;SDS011;6107;49.078;8.578;2023-04-25T03:32:33;9.10;;;5.60;;
12088;SDS011;6107;49.078;8.578;2023-04-25T03:34:59;8.03;;;5.83;;
12088;SDS011;6107;49.078;8.578;2023-04-25T03:37:25;7.60;;;5.60;;
12088;SDS011;6107;49.078;8.578;2023-04-25T03:39:51;8.97;;;5.87;;
12088;SDS011;6107;49.078;8.578;2023-04-25T03:42:16;10.90;;;5.90;;
12088;SDS011;6107;49.078;8.578;2023-04-25T03:44:42;9.67;;;6.00;;
12088;SDS011;6107;49.078;8.578;2023-04-25T03:47:08;9.00;;;6.20;;
12088;SDS011;6107;49.078;8.578;2023-04-25T03:49:34;11.07;;;6.27;;
12088;SDS011;6107;49.078;8.578;2023-04-25T03:52:00;9.43;;;6.30;;
12088;SDS011;6107;49.078;8.578;2023-04-25T03:54:26;7.63;;;5.57;;
12088;SDS011;6107;49.078;8.578;2023-04-25T03:56:52;8.67;;;5.87;;
12088;SDS011;6107;49.078;8.578;2023-04-25T03:59:17;8.50;;;5.87;;
12088;SDS011;6107;49.078;8.578;2023-04-25T04:01:43;7.00;;;5.60;;
12088;SDS011;6107;49.078;8.578;2023-04-25T04:04:08;8.10;;;6.17;;
12088;SDS011;6107;49.078;8.578;2023-04-25T04:06:34;8.10;;;6.07;;
12088;SDS011;6107;49.078;8.578;2023-04-25T04:08:59;7.93;;;5.63;;
12088;SDS011;6107;49.078;8.578;2023-04-25T04:11:25;9.50;;;5.93;;
12088;SDS011;6107;49.078;8.578;2023-04-25T04:13:51;7.97;;;5.63;;
12088;SDS011;6107;49.078;8.578;2023-04-25T04:16:16;10.17;;;5.53;;
12088;SDS011;6107;49.078;8.578;2023-04-25T04:18:41;8.57;;;5.77;;
12088;SDS011;6107;49.078;8.578;2023-04-25T04:21:07;9.10;;;5.43;;
12088;SDS011;6107;49.078;8.578;2023-04-25T04:23:32;10.07;;;5.90;;
12088;SDS011;6107;49.078;8.578;2023-04-25T04:25:58;8.90;;;5.90;;
12088;SDS011;6107;49.078;8.578;2023-04-25T04:28:24;7.80;;;6.03;;
12088;SDS011;6107;49.078;8.578;2023-04-25T04:30:51;8.90;;;6.33;;
12088;SDS011;6107;49.078;8.578;2023-04-25T04:33:17;7.40;;;5.63;;
12088;SDS011;6107;49.078;8.578;2023-04-25T04:35:46;9.17;;;6.13;;
12088;SDS011;6107;49.078;8.578;2023-04-25T04:38:12;10.73;;;6.40;;
12088;SDS011;6107;49.078;8.578;2023-04-25T04:40:40;10.20;;;6.10;;
12088;SDS011;6107;49.078;8.578;2023-04-25T04:43:07;11.53;;;7.80;;
12088;SDS011;6107;49.078;8.578;2023-04-25T04:45:35;16.73;;;9.37;;
12088;SDS011;6107;49.078;8.578;2023-04-25T04:48:03;22.03;;;13.80;;
12088;SDS011;6107;49.078;8.578;2023-04-25T04:50:30;24.13;;;13.23;;
12088;SDS011;6107;49.078;8.578;2023-04-25T04:52:57;17.83;;;12.00;;
12088;SDS011;6107;49.078;8.578;2023-04-25T04:55:23;11.47;;;6.90;;
12088;SDS011;6107;49.078;8.578;2023-04-25T04:57:48;10.00;;;6.90;;
12088;SDS011;6107;49.078;8.578;2023-04-25T05:00:14;8.00;;;6.00;;
12088;SDS011;6107;49.078;8.578;2023-04-25T05:02:40;10.00;;;5.80;;
12088;SDS011;6107;49.078;8.578;2023-04-25T05:05:06;10.30;;;6.87;;
12088;SDS011;6107;49.078;8.578;2023-04-25T05:07:32;9.80;;;6.63;;
12088;SDS011;6107;49.078;8.578;2023-04-25T05:09:57;8.87;;;6.30;;
12088;SDS011;6107;49.078;8.578;2023-04-25T05:12:23;7.37;;;5.67;;
12088;SDS011;6107;49.078;8.578;2023-04-25T05:14:48;8.33;;;5.60;;
12088;SDS011;6107;49.078;8.578;2023-04-25T05:17:14;8.20;;;6.20;;
12088;SDS011;6107;49.078;8.578;2023-04-25T05:19:40;9.73;;;6.23;;
12088;SDS011;6107;49.078;8.578;2023-04-25T05:22:05;8.10;;;5.83;;
12088;SDS011;6107;49.078;8.578;2023-04-25T05:24:31;9.17;;;5.80;;
12088;SDS011;6107;49.078;8.578;2023-04-25T05:26:56;8.43;;;6.03;;
12088;SDS011;6107;49.078;8.578;2023-04-25T05:29:22;8.63;;;6.03;;
12088;SDS011;6107;49.078;8.578;2023-04-25T05:31:48;7.23;;;6.03;;
12088;SDS011;6107;49.078;8.578;2023-04-25T05:34:13;8.03;;;6.00;;
12088;SDS011;6107;49.078;8.578;2023-04-25T05:36:39;7.97;;;5.57;;
12088;SDS011;6107;49.078;8.578;2023-04-25T05:39:05;7.30;;;5.63;;
12088;SDS011;6107;49.078;8.578;2023-04-25T05:41:31;8.70;;;5.57;;
12088;SDS011;6107;49.078;8.578;2023-04-25T05:43:56;8.50;;;5.93;;
12088;SDS011;6107;49.078;8.578;2023-04-25T05:46:22;8.90;;;7.17;;
12088;SDS011;6107;49.078;8.578;2023-04-25T05:48:47;8.70;;;6.27;;
12088;SDS011;6107;49.078;8.578;2023-04-25T05:51:13;8.90;;;5.43;;
12088;SDS011;6107;49.078;8.578;2023-04-25T05:53:38;7.90;;;6.17;;
12088;SDS011;6107;49.078;8.578;2023-04-25T05:56:04;9.77;;;5.60;;
12088;SDS011;6107;49.078;8.578;2023-04-25T05:58:29;7.27;;;5.50;;
12088;SDS011;6107;49.078;8.578;2023-04-25T06:00:55;9.77;;;5.83;;
12088;SDS011;6107;49.078;8.578;2023-04-25T06:03:20;8.07;;;5.23;;
12088;SDS011;6107;49.078;8.578;2023-04-25T06:05:46;8.53;;;5.77;;
12088;SDS011;6107;49.078;8.578;2023-04-25T06:08:11;6.77;;;5.20;;
12088;SDS011;6107;49.078;8.578;2023-04-25T06:10:37;6.27;;;5.30;;
12088;SDS011;6107;49.078;8.578;2023-04-25T06:13:03;5.97;;;5.20;;
12088;SDS011;6107;49.078;8.578;2023-04-25T06:15:29;4.83;;;4.20;;
12088;SDS011;6107;49.078;8.578;2023-04-25T06:17:57;7.03;;;5.17;;
12088;SDS011;6107;49.078;8.578;2023-04-25T06:20:23;6.57;;;5.10;;
12088;SDS011;6107;49.078;8.578;2023-04-25T06:22:49;7.30;;;5.50;;
12088;SDS011;6107;49.078;8.578;2023-04-25T06:25:18;8.03;;;5.17;;
12088;SDS011;6107;49.078;8.578;2023-04-25T06:30:11;9.23;;;6.03;;
12088;SDS011;6107;49.078;8.578;2023-04-25T06:32:37;8.67;;;5.87;;
12088;SDS011;6107;49.078;8.578;2023-04-25T06:35:04;8.73;;;6.43;;
12088;SDS011;6107;49.078;8.578;2023-04-25T06:37:30;8.67;;;6.37;;
12088;SDS011;6107;49.078;8.578;2023-04-25T06:39:55;7.63;;;6.37;;
12088;SDS011;6107;49.078;8.578;2023-04-25T06:42:21;8.87;;;6.40;;
12088;SDS011;6107;49.078;8.578;2023-04-25T06:44:46;9.17;;;6.37;;
12088;SDS011;6107;49.078;8.578;2023-04-25T06:47:12;9.20;;;6.33;;
12088;SDS011;6107;49.078;8.578;2023-04-25T06:49:38;7.57;;;5.97;;
12088;SDS011;6107;49.078;8.578;2023-04-25T06:52:03;7.93;;;5.77;;
12088;SDS011;6107;49.078;8.578;2023-04-25T06:54:29;11.47;;;6.00;;
12088;SDS011;6107;49.078;8.578;2023-04-25T06:56:55;9.17;;;6.00;;
12088;SDS011;6107;49.078;8.578;2023-04-25T06:59:20;8.77;;;5.90;;
12088;SDS011;6107;49.078;8.578;2023-04-25T07:01:46;7.83;;;6.10;;
12088;SDS011;6107;49.078;8.578;2023-04-25T07:04:11;7.70;;;5.83;;
12088;SDS011;6107;49.078;8.578;2023-04-25T07:06:37;7.90;;;5.77;;
12088;SDS011;6107;49.078;8.578;2023-04-25T07:09:09;7.00;;;5.33;;
12088;SDS011;6107;49.078;8.578;2023-04-25T07:11:37;11.67;;;7.87;;
12088;SDS011;6107;49.078;8.578;2023-04-25T07:14:03;9.90;;;5.90;;
12088;SDS011;6107;49.078;8.578;2023-04-25T07:16:28;11.40;;;7.40;;
12088;SDS011;6107;49.078;8.578;2023-04-25T07:18:54;8.47;;;6.47;;
12088;SDS011;6107;49.078;8.578;2023-04-25T07:21:20;8.77;;;6.30;;
12088;SDS011;6107;49.078;8.578;2023-04-25T07:23:45;9.27;;;6.60;;
12088;SDS011;6107;49.078;8.578;2023-04-25T07:26:11;10.87;;;6.83;;
12088;SDS011;6107;49.078;8.578;2023-04-25T07:28:37;10.77;;;6.63;;
12088;SDS011;6107;49.078;8.578;2023-04-25T07:31:02;22.20;;;8.40;;
12088;SDS011;6107;49.078;8.578;2023-04-25T07:33:28;12.90;;;7.27;;
12088;SDS011;6107;49.078;8.578;2023-04-25T07:35:54;9.50;;;7.27;;
12088;SDS011;6107;49.078;8.578;2023-04-25T07:38:20;38.53;;;12.60;;
12088;SDS011;6107;49.078;8.578;2023-04-25T07:40:47;55.83;;;16.53;;
12088;SDS011;6107;49.078;8.578;2023-04-25T07:43:13;10.23;;;7.40;;
12088;SDS011;6107;49.078;8.578;2023-04-25T07:45:41;36.43;;;12.30;;
12088;SDS011;6107;49.078;8.578;2023-04-25T07:48:10;25.27;;;10.13;;
12088;SDS011;6107;49.078;8.578;2023-04-25T07:50:36;128.70;;;35.30;;
12088;SDS011;6107;49.078;8.578;2023-04-25T07:53:01;11.70;;;7.50;;
12088;SDS011;6107;49.078;8.578;2023-04-25T07:55:27;10.57;;;7.00;;
12088;SDS011;6107;49.078;8.578;2023-04-25T07:57:53;9.83;;;7.10;;
12088;SDS011;6107;49.078;8.578;2023-04-25T08:00:18;10.60;;;7.57;;
12088;SDS011;6107;49.078;8.578;2023-04-25T08:02:44;27.17;;;12.17;;
12088;SDS011;6107;49.078;8.578;2023-04-25T08:05:10;11.23;;;7.10;;
12088;SDS011;6107;49.078;8.578;2023-04-25T08:07:39;16.10;;;8.33;;
12088;SDS011;6107;49.078;8.578;2023-04-25T08:10:05;72.40;;;21.50;;
12088;SDS011;6107;49.078;8.578;2023-04-25T08:12:31;22.10;;;9.43;;
12088;SDS011;6107;49.078;8.578;2023-04-25T08:14:57;14.03;;;8.67;;
12088;SDS011;6107;49.078;8.578;2023-04-25T08:17:23;13.40;;;7.93;;
12088;SDS011;6107;49.078;8.578;2023-04-25T08:19:48;10.73;;;6.87;;
12088;SDS011;6107;49.078;8.578;2023-04-25T08:22:14;11.43;;;7.73;;
12088;SDS011;6107;49.078;8.578;2023-04-25T08:24:40;13.53;;;7.63;;
12088;SDS011;6107;49.078;8.578;2023-04-25T08:27:06;10.40;;;7.47;;
12088;SDS011;6107;49.078;8.578;2023-04-25T08:29:32;9.40;;;6.80;;
12088;SDS011;6107;49.078;8.578;2023-04-25T08:31:59;10.27;;;7.23;;
12088;SDS011;6107;49.078;8.578;2023-04-25T08:34:25;11.10;;;8.00;;
12088;SDS011;6107;49.078;8.578;2023-04-25T08:36:51;11.47;;;7.80;;
12088;SDS011;6107;49.078;8.578;2023-04-25T08:39:16;11.77;;;7.97;;
12088;SDS011;6107;49.078;8.578;2023-04-25T08:41:42;10.17;;;7.10;;
12088;SDS011;6107;49.078;8.578;2023-04-25T08:44:09;12.27;;;8.27;;
12088;SDS011;6107;49.078;8.578;2023-04-25T08:46:37;14.00;;;8.50;;
12088;SDS011;6107;49.078;8.578;2023-04-25T08:49:04;13.43;;;8.97;;
12088;SDS011;6107;49.078;8.578;2023-04-25T08:51:31;15.20;;;9.77;;
12088;SDS011;6107;49.078;8.578;2023-04-25T08:53:58;17.07;;;9.07;;
12088;SDS011;6107;49.078;8.578;2023-04-25T08:56:55;20.77;;;9.53;;
12088;SDS011;6107;49.078;8.578;2023-04-25T08:59:23;13.20;;;7.57;;
12088;SDS011;6107;49.078;8.578;2023-04-25T09:01:49;13.27;;;6.73;;
12088;SDS011;6107;49.078;8.578;2023-04-25T09:04:15;10.73;;;6.67;;
12088;SDS011;6107;49.078;8.578;2023-04-25T09:06:40;36.10;;;11.00;;
12088;SDS011;6107;49.078;8.578;2023-04-25T09:09:07;14.57;;;8.03;;
12088;SDS011;6107;49.078;8.578;2023-04-25T09:11:34;11.53;;;7.73;;
12088;SDS011;6107;49.078;8.578;2023-04-25T09:14:13;46.00;;;14.03;;
12088;SDS011;6107;49.078;8.578;2023-04-25T09:19:39;22.47;;;10.70;;
12088;SDS011;6107;49.078;8.578;2023-04-25T09:22:05;45.23;;;15.67;;
12088;SDS011;6107;49.078;8.578;2023-04-25T09:24:42;17.43;;;10.00;;
12088;SDS011;6107;49.078;8.578;2023-04-25T09:27:09;21.10;;;9.17;;
12088;SDS011;6107;49.078;8.578;2023-04-25T09:29:36;18.10;;;9.60;;
12088;SDS011;6107;49.078;8.578;2023-04-25T09:34:49;14.93;;;7.77;;
12088;SDS011;6107;49.078;8.578;2023-04-25T09:37:19;13.43;;;8.80;;
12088;SDS011;6107;49.078;8.578;2023-04-25T09:39:55;11.23;;;7.50;;
12088;SDS011;6107;49.078;8.578;2023-04-25T09:42:24;17.27;;;8.70;;
12088;SDS011;6107;49.078;8.578;2023-04-25T09:44:51;19.70;;;10.50;;
12088;SDS011;6107;49.078;8.578;2023-04-25T09:47:18;79.53;;;25.83;;
12088;SDS011;6107;49.078;8.578;2023-04-25T09:49:46;96.87;;;30.03;;
12088;SDS011;6107;49.078;8.578;2023-04-25T09:52:16;57.90;;;22.60;;
12088;SDS011;6107;49.078;8.578;2023-04-25T09:54:45;25.97;;;13.77;;
12088;SDS011;6107;49.078;8.578;2023-04-25T09:57:22;14.07;;;9.33;;
12088;SDS011;6107;49.078;8.578;2023-04-25T10:02:16;17.23;;;9.13;;
12088;SDS011;6107;49.078;8.578;2023-04-25T10:04:44;17.00;;;11.80;;
12088;SDS011;6107;49.078;8.578;2023-04-25T10:07:13;16.83;;;9.43;;
12088;SDS011;6107;49.078;8.578;2023-04-25T10:09:39;18.27;;;9.77;;
12088;SDS011;6107;49.078;8.578;2023-04-25T10:12:06;20.17;;;10.37;;
12088;SDS011;6107;49.078;8.578;2023-04-25T10:14:32;16.37;;;9.30;;
12088;SDS011;6107;49.078;8.578;2023-04-25T10:16:58;14.67;;;9.23;;
12088;SDS011;6107;49.078;8.578;2023-04-25T10:19:25;14.60;;;8.60;;
12088;SDS011;6107;49.078;8.578;2023-04-25T10:21:52;19.73;;;10.00;;
12088;SDS011;6107;49.078;8.578;2023-04-25T10:24:23;17.07;;;9.30;;
12088;SDS011;6107;49.078;8.578;2023-04-25T10:26:50;15.73;;;9.83;;
12088;SDS011;6107;49.078;8.578;2023-04-25T10:29:23;16.47;;;9.43;;
12088;SDS011;6107;49.078;8.578;2023-04-25T10:31:51;18.13;;;9.93;;
12088;SDS011;6107;49.078;8.578;2023-04-25T10:34:17;18.07;;;10.27;;
12088;SDS011;6107;49.078;8.578;2023-04-25T10:36:44;14.87;;;9.40;;
12088;SDS011;6107;49.078;8.578;2023-04-25T10:39:21;20.20;;;10.27;;
12088;SDS011;6107;49.078;8.578;2023-04-25T10:41:52;17.93;;;9.60;;
12088;SDS011;6107;49.078;8.578;2023-04-25T10:44:21;18.53;;;10.17;;
12088;SDS011;6107;49.078;8.578;2023-04-25T10:46:47;17.07;;;11.03;;
12088;SDS011;6107;49.078;8.578;2023-04-25T10:49:28;14.83;;;10.60;;
12088;SDS011;6107;49.078;8.578;2023-04-25T10:52:16;14.77;;;10.13;;
12088;SDS011;6107;49.078;8.578;2023-04-25T10:54:54;21.00;;;10.83;;
12088;SDS011;6107;49.078;8.578;2023-04-25T10:57:39;14.33;;;9.67;;
12088;SDS011;6107;49.078;8.578;2023-04-25T11:02:37;16.33;;;10.57;;
12088;SDS011;6107;49.078;8.578;2023-04-25T11:05:05;15.90;;;10.90;;
12088;SDS011;6107;49.078;8.578;2023-04-25T11:07:34;15.63;;;10.73;;
12088;SDS011;6107;49.078;8.578;2023-04-25T11:10:04;19.37;;;11.33;;
12088;SDS011;6107;49.078;8.578;2023-04-25T11:12:30;17.73;;;11.50;;
12088;SDS011;6107;49.078;8.578;2023-04-25T11:15:03;20.20;;;11.60;;
12088;SDS011;6107;49.078;8.578;2023-04-25T11:17:30;16.63;;;11.23;;
12088;SDS011;6107;49.078;8.578;2023-04-25T11:19:56;21.70;;;11.90;;
12088;SDS011;6107;49.078;8.578;2023-04-25T11:22:22;20.97;;;11.37;;
12088;SDS011;6107;49.078;8.578;2023-04-25T11:24:48;21.90;;;12.37;;
12088;SDS011;6107;49.078;8.578;2023-04-25T11:27:13;21.93;;;11.53;;
12088;SDS011;6107;49.078;8.578;2023-04-25T11:29:39;21.07;;;12.67;;
12088;SDS011;6107;49.078;8.578;2023-04-25T11:32:05;22.53;;;12.17;;
12088;SDS011;6107;49.078;8.578;2023-04-25T11:34:32;20.37;;;11.97;;
12088;SDS011;6107;49.078;8.578;2023-04-25T11:36:58;21.90;;;12.00;;
12088;SDS011;6107;49.078;8.578;2023-04-25T11:39:25;20.20;;;12.27;;
12088;SDS011;6107;49.078;8.578;2023-04-25T11:41:52;23.23;;;12.77;;
12088;SDS011;6107;49.078;8.578;2023-04-25T11:44:18;24.73;;;12.50;;
12088;SDS011;6107;49.078;8.578;2023-04-25T11:46:45;22.17;;;12.97;;
12088;SDS011;6107;49.078;8.578;2023-04-25T11:49:11;22.10;;;12.00;;
12088;SDS011;6107;49.078;8.578;2023-04-25T11:51:38;23.27;;;11.53;;
12088;SDS011;6107;49.078;8.578;2023-04-25T11:54:08;21.40;;;11.97;;
12088;SDS011;6107;49.078;8.578;2023-04-25T11:56:33;20.80;;;10.77;;
12088;SDS011;6107;49.078;8.578;2023-04-25T11:59:00;18.27;;;10.73;;
12088;SDS011;6107;49.078;8.578;2023-04-25T12:03:53;16.63;;;9.13;;
12088;SDS011;6107;49.078;8.578;2023-04-25T12:06:18;19.03;;;8.80;;
12088;SDS011;6107;49.078;8.578;2023-04-25T12:09:07;17.87;;;8.93;;
12088;SDS011;6107;49.078;8.578;2023-04-25T12:11:52;17.37;;;9.23;;
12088;SDS011;6107;49.078;8.578;2023-04-25T12:14:29;18.73;;;9.37;;
12088;SDS011;6107;49.078;8.578;2023-04-25T12:16:57;18.73;;;9.37;;
12088;SDS011;6107;49.078;8.578;2023-04-25T12:19:24;19.03;;;9.27;;
12088;SDS011;6107;49.078;8.578;2023-04-25T12:21:51;19.73;;;9.63;;
12088;SDS011;6107;49.078;8.578;2023-04-25T12:24:18;19.33;;;9.93;;
12088;SDS011;6107;49.078;8.578;2023-04-25T12:26:54;17.70;;;8.80;;
12088;SDS011;6107;49.078;8.578;2023-04-25T12:29:25;17.47;;;9.47;;
12088;SDS011;6107;49.078;8.578;2023-04-25T12:31:52;17.17;;;9.10;;
12088;SDS011;6107;49.078;8.578;2023-04-25T12:34:19;17.13;;;9.30;;
12088;SDS011;6107;49.078;8.578;2023-04-25T12:36:46;21.80;;;9.67;;
12088;SDS011;6107;49.078;8.578;2023-04-25T12:39:21;14.27;;;9.20;;
12088;SDS011;6107;49.078;8.578;2023-04-25T12:41:48;22.37;;;9.73;;
12088;SDS011;6107;49.078;8.578;2023-04-25T12:44:15;14.27;;;9.27;;
12088;SDS011;6107;49.078;8.578;2023-04-25T12:46:41;19.00;;;9.00;;
12088;SDS011;6107;49.078;8.578;2023-04-25T12:49:07;14.83;;;9.23;;
12088;SDS011;6107;49.078;8.578;2023-04-25T12:51:33;15.90;;;9.40;;
12088;SDS011;6107;49.078;8.578;2023-04-25T12:54:00;15.10;;;8.63;;
12088;SDS011;6107;49.078;8.578;2023-04-25T12:56:26;15.43;;;8.80;;
12088;SDS011;6107;49.078;8.578;2023-04-25T12:58:52;13.57;;;8.90;;
12088;SDS011;6107;49.078;8.578;2023-04-25T13:01:18;15.53;;;8.80;;
12088;SDS011;6107;49.078;8.578;2023-04-25T13:03:44;16.13;;;8.97;;
12088;SDS011;6107;49.078;8.578;2023-04-25T13:06:10;17.23;;;9.93;;
12088;SDS011;6107;49.078;8.578;2023-04-25T13:08:36;15.97;;;9.80;;
12088;SDS011;6107;49.078;8.578;2023-04-25T13:11:03;18.13;;;9.47;;
12088;SDS011;6107;49.078;8.578;2023-04-25T13:13:28;16.10;;;8.83;;
12088;SDS011;6107;49.078;8.578;2023-04-25T13:15:54;16.30;;;10.00;;
12088;SDS011;6107;49.078;8.578;2023-04-25T13:18:20;13.53;;;8.83;;
12088;SDS011;6107;49.078;8.578;2023-04-25T13:20:46;14.23;;;8.60;;
12088;SDS011;6107;49.078;8.578;2023-04-25T13:23:11;17.07;;;8.70;;
12088;SDS011;6107;49.078;8.578;2023-04-25T13:25:37;13.97;;;8.57;;
12088;SDS011;6107;49.078;8.578;2023-04-25T13:28:02;13.07;;;8.50;;
12088;SDS011;6107;49.078;8.578;2023-04-25T13:30:28;15.37;;;8.30;;
12088;SDS011;6107;49.078;8.578;2023-04-25T13:32:54;15.63;;;8.20;;
12088;SDS011;6107;49.078;8.578;2023-04-25T13:35:21;15.33;;;8.47;;
12088;SDS011;6107;49.078;8.578;2023-04-25T13:37:47;12.37;;;7.83;;
12088;SDS011;6107;49.078;8.578;2023-04-25T13:40:13;12.47;;;7.37;;
12088;SDS011;6107;49.078;8.578;2023-04-25T13:42:40;14.07;;;7.40;;
12088;SDS011;6107;49.078;8.578;2023-04-25T13:45:06;14.47;;;7.93;;
12088;SDS011;6107;49.078;8.578;2023-04-25T13:47:32;13.17;;;7.63;;
12088;SDS011;6107;49.078;8.578;2023-04-25T13:49:58;12.43;;;7.50;;
12088;SDS011;6107;49.078;8.578;2023-04-25T13:52:24;13.93;;;7.37;;
12088;SDS011;6107;49.078;8.578;2023-04-25T13:54:50;12.87;;;6.53;;
12088;SDS011;6107;49.078;8.578;2023-04-25T13:57:16;11.40;;;7.00;;
12088;SDS011;6107;49.078;8.578;2023-04-25T13:59:42;9.30;;;6.53;;
12088;SDS011;6107;49.078;8.578;2023-04-25T14:02:08;11.83;;;6.63;;
12088;SDS011;6107;49.078;8.578;2023-04-25T14:04:33;14.00;;;7.27;;
12088;SDS011;6107;49.078;8.578;2023-04-25T14:06:59;9.77;;;6.03;;
12088;SDS011;6107;49.078;8.578;2023-04-25T14:09:25;11.90;;;6.93;;
12088;SDS011;6107;49.078;8.578;2023-04-25T14:11:52;10.70;;;6.60;;
12088;SDS011;6107;49.078;8.578;2023-04-25T14:14:18;10.07;;;6.60;;
12088;SDS011;6107;49.078;8.578;2023-04-25T14:16:44;10.27;;;6.30;;
12088;SDS011;6107;49.078;8.578;2023-04-25T14:19:09;9.77;;;6.53;;
12088;SDS011;6107;49.078;8.578;2023-04-25T14:21:35;11.07;;;6.93;;
12088;SDS011;6107;49.078;8.578;2023-04-25T14:24:00;10.30;;;6.83;;
12088;SDS011;6107;49.078;8.578;2023-04-25T14:26:26;9.20;;;5.93;;
12088;SDS011;6107;49.078;8.578;2023-04-25T14:28:51;8.80;;;6.50;;
12088;SDS011;6107;49.078;8.578;2023-04-25T14:31:17;9.90;;;6.03;;
12088;SDS011;6107;49.078;8.578;2023-04-25T14:33:43;11.83;;;7.20;;
12088;SDS011;6107;49.078;8.578;2023-04-25T14:36:09;11.23;;;7.17;;
12088;SDS011;6107;49.078;8.578;2023-04-25T14:38:35;10.47;;;6.60;;
12088;SDS011;6107;49.078;8.578;2023-04-25T14:41:00;9.63;;;6.07;;
12088;SDS011;6107;49.078;8.578;2023-04-25T14:43:26;8.73;;;6.23;;
12088;SDS011;6107;49.078;8.578;2023-04-25T14:45:51;10.57;;;6.27;;
12088;SDS011;6107;49.078;8.578;2023-04-25T14:48:17;10.20;;;6.20;;
12088;SDS011;6107;49.078;8.578;2023-04-25T14:50:44;10.07;;;6.60;;
12088;SDS011;6107;49.078;8.578;2023-04-25T14:53:10;10.00;;;6.03;;
12088;SDS011;6107;49.078;8.578;2023-04-25T14:55:35;12.00;;;5.97;;
12088;SDS011;6107;49.078;8.578;2023-04-25T14:58:01;7.80;;;6.03;;
12088;SDS011;6107;49.078;8.578;2023-04-25T15:00:26;9.13;;;5.93;;
12088;SDS011;6107;49.078;8.578;2023-04-25T15:02:52;9.53;;;5.70;;
12088;SDS011;6107;49.078;8.578;2023-04-25T15:05:18;10.37;;;5.47;;